Time;durP1;ratioP1;P1;durP2;ratioP2;P2;SDS_P1;SDS_P2;PMS_P1;PMS_P2;Temp;Humidity;BMP_temperature;BMP_pressure;BME280_temperature;BME280_humidity;BME280_pressure;Samples;Min_cycle;Max_cycle;Signal;HPM_P1;HPM_P2
2022/11/19 00:00:08;;;;;;;7.57;1.80;;;9.30;99.90;;;;;;5067250;28;20581;-71
2022/11/19 00:02:34;;;;;;;7.95;1.60;;;9.30;99.90;;;;;;5067619;28;20043;-71
2022/11/19 00:04:59;;;;;;;8.63;2.00;;;9.20;99.90;;;;;;5066860;28;20036;-72
2022/11/19 00:07:25;;;;;;;10.82;2.22;;;9.20;99.90;;;;;;5066623;28;20035;-71
2022/11/19 00:09:50;;;;;;;8.35;1.73;;;9.20;99.90;;;;;;5067746;28;20032;-71
2022/11/19 00:15:00;;;;;;;8.18;1.85;;;9.10;99.90;;;;;;5066794;28;20039;-71
2022/11/19 00:17:26;;;;;;;12.45;2.22;;;9.20;99.90;;;;;;5064356;28;20024;-70
2022/11/19 00:19:51;;;;;;;6.95;1.73;;;9.10;99.90;;;;;;5037327;28;20028;-70
2022/11/19 00:22:17;;;;;;;8.95;1.92;;;9.10;99.90;;;;;;5067545;28;20540;-71
2022/11/19 00:24:42;;;;;;;10.20;1.80;;;9.10;99.90;;;;;;5067350;28;20107;-71
2022/11/19 00:27:08;;;;;;;5.30;1.70;;;9.10;99.90;;;;;;5067478;28;20032;-71
2022/11/19 00:29:34;;;;;;;7.38;1.65;;;9.10;99.90;;;;;;5048343;28;20033;-72
2022/11/19 00:31:59;;;;;;;8.60;1.85;;;9.10;99.90;;;;;;5065221;28;20748;-71
2022/11/19 00:34:25;;;;;;;11.27;2.20;;;9.00;99.90;;;;;;5065921;28;20032;-71
2022/11/19 00:36:50;;;;;;;9.82;2.00;;;8.90;99.90;;;;;;5064693;28;20020;-71
2022/11/19 00:39:16;;;;;;;11.77;1.95;;;8.90;99.90;;;;;;5065683;28;20410;-71
2022/11/19 00:41:42;;;;;;;8.50;1.70;;;8.90;99.90;;;;;;5066586;28;20036;-71
2022/11/19 00:44:07;;;;;;;6.57;1.73;;;8.90;99.90;;;;;;5067017;28;20077;-72
2022/11/19 00:46:33;;;;;;;6.80;1.65;;;8.90;99.90;;;;;;5067948;28;20041;-72
2022/11/19 00:48:59;;;;;;;10.38;1.83;;;8.90;99.90;;;;;;5052149;28;20029;-71
2022/11/19 00:51:27;;;;;;;6.93;1.48;;;8.80;99.90;;;;;;5066648;28;20085;-71
2022/11/19 00:53:54;;;;;;;10.60;1.80;;;8.80;99.90;;;;;;5048992;28;20060;-70
2022/11/19 00:56:21;;;;;;;10.77;2.22;;;8.80;99.90;;;;;;5048066;28;20410;-71
2022/11/19 00:58:48;;;;;;;9.65;1.58;;;8.80;99.90;;;;;;5067113;28;20048;-71
2022/11/19 01:01:15;;;;;;;10.07;1.70;;;8.80;99.90;;;;;;5067618;28;20044;-71
2022/11/19 01:03:41;;;;;;;9.40;2.30;;;8.70;99.90;;;;;;5067280;28;20108;-71
2022/11/19 01:06:08;;;;;;;7.53;1.88;;;8.70;99.90;;;;;;5067086;28;20041;-70
2022/11/19 01:08:35;;;;;;;10.50;2.03;;;8.70;99.90;;;;;;5048797;28;20052;-71
2022/11/19 01:11:09;;;;;;;9.15;1.85;;;8.70;99.90;;;;;;5066425;28;20048;-70
2022/11/19 01:13:35;;;;;;;9.70;1.90;;;8.60;99.90;;;;;;5046784;28;20440;-71
2022/11/19 01:16:04;;;;;;;8.77;1.83;;;8.60;99.90;;;;;;5048213;28;20078;-70
2022/11/19 01:18:30;;;;;;;8.70;1.80;;;8.50;99.90;;;;;;5065894;28;20040;-71
2022/11/19 01:20:55;;;;;;;7.32;1.70;;;8.40;99.90;;;;;;5049104;28;20039;-70
2022/11/19 01:23:21;;;;;;;10.57;2.10;;;8.40;99.90;;;;;;5067148;28;20099;-71
2022/11/19 01:25:47;;;;;;;8.63;2.10;;;8.30;99.90;;;;;;5048826;28;20078;-70
2022/11/19 01:28:13;;;;;;;8.07;1.73;;;8.20;99.90;;;;;;5065623;28;20025;-71
2022/11/19 01:30:41;;;;;;;4.60;1.77;;;8.20;99.90;;;;;;5066265;28;20111;-70
2022/11/19 01:33:07;;;;;;;10.70;2.00;;;8.20;99.90;;;;;;5065703;28;20039;-70
2022/11/19 01:35:33;;;;;;;8.00;2.05;;;8.20;99.90;;;;;;5065036;28;20041;-71
2022/11/19 01:37:59;;;;;;;9.52;2.13;;;8.20;99.90;;;;;;5048998;28;20251;-70
2022/11/19 01:40:26;;;;;;;8.50;1.90;;;8.20;99.90;;;;;;5065364;28;20479;-70
2022/11/19 01:42:53;;;;;;;7.85;2.15;;;8.20;99.90;;;;;;5065051;28;20028;-69
2022/11/19 01:45:33;;;;;;;10.48;2.35;;;8.20;99.90;;;;;;5047423;28;20032;-71
2022/11/19 01:48:32;;;;;;;12.15;2.15;;;8.20;99.90;;;;;;5062553;28;20479;-71
2022/11/19 01:51:01;;;;;;;13.57;2.25;;;8.20;99.90;;;;;;5045161;28;20044;-70
2022/11/19 01:53:29;;;;;;;8.20;2.30;;;8.20;99.90;;;;;;5064843;28;20043;-70
2022/11/19 01:56:02;;;;;;;7.40;1.73;;;8.20;99.90;;;;;;5064498;28;20032;-71
2022/11/19 01:58:34;;;;;;;9.60;2.05;;;8.20;99.90;;;;;;5065273;28;20052;-70
2022/11/19 02:01:00;;;;;;;8.82;2.05;;;8.20;99.90;;;;;;5063950;28;20044;-70
2022/11/19 02:03:29;;;;;;;9.18;2.13;;;8.10;99.90;;;;;;5065905;28;20033;-70
2022/11/19 02:05:55;;;;;;;7.60;1.92;;;8.20;99.90;;;;;;5065726;28;20085;-71
2022/11/19 02:08:35;;;;;;;8.60;2.08;;;8.20;99.90;;;;;;5043546;28;20152;-71
2022/11/19 02:11:36;;;;;;;11.80;2.25;;;8.20;99.90;;;;;;5046165;28;20682;-70
2022/11/19 02:14:29;;;;;;;9.13;2.72;;;8.20;99.90;;;;;;5053650;28;20107;-71
2022/11/19 02:17:13;;;;;;;10.10;2.53;;;8.20;99.90;;;;;;5050051;28;20025;-70
2022/11/19 02:20:03;;;;;;;9.45;2.70;;;8.20;99.90;;;;;;5064583;28;20025;-71
2022/11/19 02:23:07;;;;;;;9.07;2.05;;;8.20;99.90;;;;;;5035932;28;20037;-70
2022/11/19 02:25:47;;;;;;;10.82;2.28;;;8.20;99.90;;;;;;5061038;28;20033;-71
2022/11/19 02:28:28;;;;;;;9.65;2.15;;;8.20;99.90;;;;;;5053774;28;20473;-71
2022/11/19 02:31:07;;;;;;;11.23;2.10;;;8.20;99.90;;;;;;5051503;28;20036;-71
2022/11/19 02:33:59;;;;;;;8.63;2.33;;;8.30;99.90;;;;;;5064685;28;20036;-71
2022/11/19 02:36:37;;;;;;;9.77;1.80;;;8.20;99.90;;;;;;5064636;28;20039;-70
2022/11/19 02:39:18;;;;;;;13.60;2.30;;;8.20;99.90;;;;;;5061046;28;20024;-70
2022/11/19 02:42:06;;;;;;;6.38;1.70;;;8.30;99.90;;;;;;5065331;28;20028;-71
2022/11/19 02:47:32;;;;;;;6.63;1.58;;;8.20;99.90;;;;;;5063097;28;20049;-71
2022/11/19 02:50:07;;;;;;;9.18;1.98;;;8.20;99.90;;;;;;5045765;28;20071;-70
2022/11/19 02:52:35;;;;;;;9.80;1.98;;;8.30;99.90;;;;;;5046823;28;20132;-71
2022/11/19 02:55:00;;;;;;;7.63;2.03;;;8.20;99.90;;;;;;5063801;28;20059;-71
2022/11/19 02:57:26;;;;;;;7.05;1.70;;;8.20;99.90;;;;;;5064822;28;20032;-71
2022/11/19 03:06:19;;;;;;;8.82;1.52;;;8.10;99.90;;;;;;5005718;28;20048;-71
2022/11/19 03:08:45;;;;;;;10.25;1.90;;;8.00;99.90;;;;;;5005288;28;20065;-71
2022/11/19 03:11:20;;;;;;;7.45;1.98;;;8.00;99.90;;;;;;5043881;28;20094;-71
2022/11/19 03:17:04;;;;;;;8.70;2.10;;;7.90;99.90;;;;;;5064538;28;20047;-70
2022/11/19 03:19:42;;;;;;;9.35;1.77;;;7.90;99.90;;;;;;5066888;28;20486;-70
2022/11/19 03:22:09;;;;;;;9.88;2.15;;;7.80;99.90;;;;;;5056521;28;20599;-71
2022/11/19 03:24:40;;;;;;;6.70;1.60;;;7.80;99.90;;;;;;5072091;28;20028;-71
2022/11/19 03:27:19;;;;;;;12.05;2.35;;;7.80;99.90;;;;;;5068193;28;20135;-71
2022/11/19 03:29:48;;;;;;;10.45;2.47;;;7.70;99.90;;;;;;5068065;28;20059;-70
2022/11/19 03:32:20;;;;;;;7.65;1.92;;;7.70;99.90;;;;;;5066404;28;20494;-70
2022/11/19 03:34:49;;;;;;;12.10;2.00;;;7.60;99.90;;;;;;5067820;28;20082;-71
2022/11/19 03:37:18;;;;;;;9.02;1.85;;;7.60;99.90;;;;;;5068510;28;20123;-70
2022/11/19 03:39:46;;;;;;;8.18;1.63;;;7.60;99.90;;;;;;5067851;28;20051;-70
2022/11/19 03:42:14;;;;;;;11.50;2.05;;;7.50;99.90;;;;;;5049315;28;20032;-70
2022/11/19 03:44:49;;;;;;;7.35;1.80;;;7.50;99.90;;;;;;5067846;28;20029;-71
2022/11/19 03:47:18;;;;;;;9.02;1.88;;;7.60;99.90;;;;;;5063351;28;20037;-70
2022/11/19 03:49:50;;;;;;;12.73;2.10;;;7.60;99.90;;;;;;5067467;28;20047;-70
2022/11/19 03:52:19;;;;;;;10.73;1.75;;;7.60;99.90;;;;;;5049143;28;20033;-70
2022/11/19 03:54:45;;;;;;;7.00;1.73;;;7.60;99.90;;;;;;5049331;28;20560;-70
2022/11/19 03:57:15;;;;;;;9.60;2.00;;;7.60;99.90;;;;;;5066588;28;20040;-70
2022/11/19 03:59:41;;;;;;;6.80;1.52;;;7.60;99.90;;;;;;5067507;28;20029;-70
2022/11/19 04:02:09;;;;;;;9.75;2.20;;;7.60;99.90;;;;;;5047719;28;20145;-70
2022/11/19 04:04:38;;;;;;;8.93;1.75;;;7.60;99.90;;;;;;5067566;28;20522;-70
2022/11/19 04:07:07;;;;;;;10.90;2.40;;;7.60;99.90;;;;;;5068131;28;20021;-70
2022/11/19 04:09:32;;;;;;;6.38;1.80;;;7.60;99.90;;;;;;5068351;28;20048;-70
2022/11/19 04:11:58;;;;;;;7.53;1.88;;;7.60;99.90;;;;;;5059252;28;20040;-70
2022/11/19 04:14:24;;;;;;;12.25;2.25;;;7.60;99.90;;;;;;5058983;28;20082;-70
2022/11/19 04:16:49;;;;;;;8.75;1.83;;;7.60;99.90;;;;;;5066310;28;20033;-70
2022/11/19 04:19:16;;;;;;;7.15;1.70;;;7.60;99.90;;;;;;5066201;28;20474;-70
2022/11/19 04:21:42;;;;;;;10.05;2.00;;;7.60;99.90;;;;;;5065608;28;20471;-70
2022/11/19 04:24:08;;;;;;;6.28;2.10;;;7.60;99.90;;;;;;5063434;28;20033;-71
2022/11/19 04:26:34;;;;;;;13.02;2.03;;;7.60;99.90;;;;;;5048529;28;20093;-70
2022/11/19 04:28:59;;;;;;;6.28;1.75;;;7.60;99.90;;;;;;5066454;28;20036;-71
2022/11/19 04:31:25;;;;;;;10.93;1.95;;;7.60;99.90;;;;;;5067395;28;20029;-70
2022/11/19 04:33:50;;;;;;;10.60;1.92;;;7.60;99.90;;;;;;5070241;28;20068;-71
2022/11/19 04:36:16;;;;;;;11.90;2.17;;;7.60;99.90;;;;;;5066143;28;20425;-71
2022/11/19 04:38:42;;;;;;;9.27;1.80;;;7.70;99.90;;;;;;5064365;28;20033;-70
2022/11/19 04:41:07;;;;;;;7.55;1.65;;;7.70;99.90;;;;;;5067464;28;20036;-71
2022/11/19 04:43:33;;;;;;;9.30;2.28;;;7.70;99.90;;;;;;5067930;28;20028;-71
2022/11/19 04:45:59;;;;;;;11.65;1.88;;;7.70;99.90;;;;;;5066168;28;20044;-71
2022/11/19 04:48:24;;;;;;;9.95;1.73;;;7.80;99.90;;;;;;5048712;28;20854;-70
2022/11/19 04:50:50;;;;;;;8.68;1.58;;;7.70;99.90;;;;;;5065750;28;20032;-71
2022/11/19 04:53:16;;;;;;;11.25;2.00;;;7.80;99.90;;;;;;5051273;28;20399;-70
2022/11/19 04:55:42;;;;;;;9.88;2.03;;;7.80;99.90;;;;;;5057208;28;20066;-71
2022/11/19 04:58:08;;;;;;;10.32;1.85;;;7.80;99.90;;;;;;5067740;28;20400;-71
2022/11/19 05:00:33;;;;;;;9.38;1.92;;;7.80;99.90;;;;;;5066922;28;20079;-70
2022/11/19 05:02:59;;;;;;;8.88;1.88;;;7.90;99.90;;;;;;5067154;28;20398;-71
2022/11/19 05:05:25;;;;;;;8.52;1.83;;;7.90;99.90;;;;;;5072300;28;20089;-71
2022/11/19 05:07:50;;;;;;;10.43;2.17;;;7.90;99.90;;;;;;5068166;28;20036;-70
2022/11/19 05:10:16;;;;;;;5.18;1.60;;;7.90;99.90;;;;;;5048139;28;20036;-71
2022/11/19 05:12:41;;;;;;;12.15;2.25;;;7.90;99.90;;;;;;5064413;28;20510;-70
2022/11/19 05:15:09;;;;;;;8.45;1.83;;;7.90;99.90;;;;;;5047627;28;20055;-70
2022/11/19 05:17:34;;;;;;;9.90;2.05;;;8.00;99.90;;;;;;5050030;28;20037;-70
2022/11/19 05:20:00;;;;;;;9.45;2.20;;;8.00;99.90;;;;;;5054609;28;20116;-72
2022/11/19 05:22:25;;;;;;;8.55;2.22;;;8.00;99.90;;;;;;5048689;28;20025;-71
2022/11/19 05:24:51;;;;;;;9.95;2.53;;;8.00;99.90;;;;;;5066519;28;20025;-71
2022/11/19 05:27:16;;;;;;;11.73;2.40;;;8.00;99.90;;;;;;5066249;28;20106;-71
2022/11/19 05:29:42;;;;;;;8.18;1.73;;;8.10;99.90;;;;;;5066876;28;20453;-71
2022/11/19 05:32:08;;;;;;;11.75;1.70;;;8.00;99.90;;;;;;5064703;28;20086;-70
2022/11/19 05:34:33;;;;;;;6.00;1.63;;;8.10;99.90;;;;;;5065843;28;20083;-71
2022/11/19 05:36:59;;;;;;;8.98;2.10;;;8.10;99.90;;;;;;5062116;28;20436;-70
2022/11/19 05:39:24;;;;;;;8.85;2.40;;;8.10;99.90;;;;;;5049576;28;20036;-72
2022/11/19 05:41:50;;;;;;;9.95;2.03;;;8.10;99.90;;;;;;5065898;28;20481;-71
2022/11/19 05:44:16;;;;;;;10.20;1.80;;;8.10;99.90;;;;;;5056529;28;20037;-71
2022/11/19 05:46:41;;;;;;;9.88;1.80;;;8.10;99.90;;;;;;5065512;28;20033;-72
2022/11/19 05:49:07;;;;;;;8.95;2.33;;;8.20;99.90;;;;;;5045970;28;20143;-71
2022/11/19 05:51:33;;;;;;;10.45;1.88;;;8.10;99.90;;;;;;5065149;28;20690;-71
2022/11/19 05:53:58;;;;;;;9.48;2.20;;;8.20;99.90;;;;;;5065293;28;20059;-72
2022/11/19 05:56:24;;;;;;;6.85;1.67;;;8.10;99.90;;;;;;5064458;28;20032;-71
2022/11/19 05:58:49;;;;;;;5.85;1.20;;;8.10;99.90;;;;;;5063870;28;20071;-71
2022/11/19 06:01:15;;;;;;;9.88;2.17;;;8.20;99.90;;;;;;5064288;28;20024;-71
2022/11/19 06:03:40;;;;;;;6.97;1.95;;;8.20;99.90;;;;;;5065759;28;20547;-71
2022/11/19 06:06:07;;;;;;;11.13;2.22;;;8.20;99.90;;;;;;5064362;28;20050;-71
2022/11/19 06:08:32;;;;;;;8.70;1.98;;;8.20;99.90;;;;;;5064747;28;20044;-71
2022/11/19 06:11:03;;;;;;;7.63;1.63;;;8.20;99.90;;;;;;5064413;28;20036;-71
2022/11/19 06:13:28;;;;;;;8.98;1.90;;;8.20;99.90;;;;;;5062543;28;20044;-71
2022/11/19 06:15:54;;;;;;;8.18;1.73;;;8.20;99.90;;;;;;5046313;28;20024;-71
2022/11/19 06:18:19;;;;;;;8.05;1.70;;;8.20;99.90;;;;;;5065448;28;20032;-71
2022/11/19 06:20:45;;;;;;;9.82;1.50;;;8.20;99.90;;;;;;5063797;28;20028;-71
2022/11/19 06:23:10;;;;;;;8.02;1.70;;;8.20;99.90;;;;;;5059149;28;20036;-72
2022/11/19 06:25:36;;;;;;;7.05;2.05;;;8.20;99.90;;;;;;5046049;28;20039;-72
2022/11/19 06:28:02;;;;;;;6.43;1.42;;;8.10;99.90;;;;;;5058360;28;20037;-71
2022/11/19 06:30:27;;;;;;;12.30;1.70;;;8.20;99.90;;;;;;5062334;28;20029;-71
2022/11/19 06:32:53;;;;;;;9.07;1.58;;;8.10;99.90;;;;;;5064836;28;20036;-71
2022/11/19 06:35:18;;;;;;;11.07;1.70;;;8.20;99.90;;;;;;5064690;28;20103;-72
2022/11/19 06:37:44;;;;;;;11.43;1.70;;;8.10;99.90;;;;;;5067920;28;20037;-70
2022/11/19 06:40:10;;;;;;;10.95;1.80;;;8.20;99.90;;;;;;5051639;28;20345;-70
2022/11/19 06:42:36;;;;;;;6.40;1.30;;;8.20;99.90;;;;;;5051157;28;20086;-70
2022/11/19 06:45:02;;;;;;;8.95;1.85;;;8.10;99.90;;;;;;5069905;28;20056;-70
2022/11/19 06:47:32;;;;;;;9.15;1.77;;;8.20;99.90;;;;;;5069507;28;20028;-70
2022/11/19 06:49:58;;;;;;;7.88;1.75;;;8.20;99.90;;;;;;5068298;28;20067;-70
2022/11/19 06:52:24;;;;;;;10.55;1.55;;;8.20;99.90;;;;;;5061079;28;20068;-70
2022/11/19 06:54:50;;;;;;;8.32;1.73;;;8.20;99.90;;;;;;5049820;28;20047;-71
2022/11/19 06:57:15;;;;;;;7.82;1.75;;;8.20;99.90;;;;;;5067336;28;20028;-70
2022/11/19 06:59:41;;;;;;;5.57;1.65;;;8.20;99.90;;;;;;5068058;28;20033;-69
2022/11/19 07:02:08;;;;;;;8.02;1.35;;;8.20;99.90;;;;;;5051411;28;20120;-72
2022/11/19 07:04:34;;;;;;;6.97;1.30;;;8.20;99.90;;;;;;5067612;28;20043;-70
2022/11/19 07:06:59;;;;;;;10.52;1.60;;;8.20;99.90;;;;;;5069374;28;20028;-71
2022/11/19 07:09:25;;;;;;;5.97;1.73;;;8.20;99.90;;;;;;5068870;28;20034;-71
2022/11/19 07:11:51;;;;;;;7.13;1.85;;;8.20;99.90;;;;;;5068813;28;20036;-71
2022/11/19 07:14:16;;;;;;;7.55;1.75;;;8.30;99.90;;;;;;5064914;28;20044;-71
2022/11/19 07:16:42;;;;;;;5.78;1.50;;;8.20;99.90;;;;;;5066422;28;20029;-70
2022/11/19 07:19:08;;;;;;;6.97;1.70;;;8.20;99.90;;;;;;5065640;28;20807;-70
2022/11/19 07:21:34;;;;;;;8.73;1.38;;;8.20;99.90;;;;;;5066760;28;20028;-70
2022/11/19 07:24:01;;;;;;;5.43;1.27;;;8.20;99.90;;;;;;5064918;28;20052;-71
2022/11/19 07:26:27;;;;;;;7.50;1.67;;;8.20;99.90;;;;;;5067305;28;20036;-71
2022/11/19 07:28:52;;;;;;;7.00;1.50;;;8.20;99.90;;;;;;5048409;28;20034;-70
2022/11/19 07:31:18;;;;;;;7.93;1.55;;;8.20;99.90;;;;;;5063861;28;20038;-71
2022/11/19 07:33:44;;;;;;;10.95;1.83;;;8.30;99.90;;;;;;5066697;28;20056;-72
2022/11/19 07:36:11;;;;;;;7.38;1.95;;;8.30;99.90;;;;;;5066594;28;20045;-72
2022/11/19 07:38:37;;;;;;;8.63;1.30;;;8.30;99.90;;;;;;5067400;28;20029;-72
2022/11/19 07:43:49;;;;;;;7.80;1.60;;;8.30;99.90;;;;;;5067084;28;20042;-71
2022/11/19 07:46:15;;;;;;;8.48;1.60;;;8.30;99.90;;;;;;5043634;28;20450;-72
2022/11/19 07:48:40;;;;;;;7.32;1.90;;;8.30;99.90;;;;;;5065372;28;20035;-72
2022/11/19 07:51:06;;;;;;;8.57;1.48;;;8.30;99.90;;;;;;5066395;28;20044;-71
2022/11/19 07:53:31;;;;;;;6.30;1.23;;;8.40;99.90;;;;;;5065864;28;20033;-71
2022/11/19 07:56:00;;;;;;;6.43;1.33;;;8.40;99.90;;;;;;5063721;28;20020;-71
2022/11/19 07:58:26;;;;;;;6.90;1.67;;;8.40;99.90;;;;;;5065397;28;20643;-72
2022/11/19 08:00:51;;;;;;;9.40;2.45;;;8.40;99.90;;;;;;5066525;28;20087;-71
2022/11/19 08:03:18;;;;;;;9.15;2.05;;;8.40;99.90;;;;;;5065807;28;20060;-71
2022/11/19 08:05:44;;;;;;;8.63;1.65;;;8.40;99.90;;;;;;5066574;28;20119;-71
2022/11/19 08:08:09;;;;;;;6.53;1.63;;;8.40;99.90;;;;;;5066986;28;20086;-70
2022/11/19 08:10:35;;;;;;;7.30;1.50;;;8.40;99.90;;;;;;5080440;28;20035;-71
2022/11/19 08:13:03;;;;;;;8.50;1.63;;;8.40;99.90;;;;;;5064843;28;20437;-72
2022/11/19 08:15:30;;;;;;;8.50;1.92;;;8.50;99.90;;;;;;5066597;28;20032;-71
2022/11/19 08:20:44;;;;;;;9.35;1.60;;;8.50;99.90;;;;;;5074662;28;20097;-72
2022/11/19 08:23:11;;;;;;;6.53;1.52;;;8.50;99.90;;;;;;5057336;28;20502;-71
2022/11/19 08:25:37;;;;;;;8.65;1.65;;;8.50;99.90;;;;;;5066591;28;20032;-71
2022/11/19 08:28:03;;;;;;;7.30;1.60;;;8.50;99.90;;;;;;5066370;28;20471;-71
2022/11/19 08:30:30;;;;;;;9.70;2.17;;;8.50;99.90;;;;;;5047850;28;20028;-71
2022/11/19 08:32:56;;;;;;;12.77;1.63;;;8.50;99.90;;;;;;5066269;28;20073;-71
2022/11/19 08:35:22;;;;;;;7.28;1.88;;;8.60;99.90;;;;;;5046427;28;20040;-71
2022/11/19 08:37:48;;;;;;;13.57;1.65;;;8.60;99.90;;;;;;5064831;28;20037;-71
2022/11/19 08:40:14;;;;;;;7.13;1.45;;;8.60;99.90;;;;;;5064439;28;20029;-71
2022/11/19 08:42:58;;;;;;;7.28;1.60;;;8.60;99.90;;;;;;5031881;28;20083;-71
2022/11/19 08:45:27;;;;;;;8.80;1.50;;;8.60;99.90;;;;;;5048291;28;20032;-71
2022/11/19 08:47:54;;;;;;;6.53;1.52;;;8.60;99.90;;;;;;5066140;28;20048;-71
2022/11/19 08:50:19;;;;;;;4.63;1.23;;;8.70;99.90;;;;;;5066080;28;20028;-71
2022/11/19 08:52:45;;;;;;;6.60;1.63;;;8.70;99.90;;;;;;5047721;28;20102;-72
2022/11/19 08:55:11;;;;;;;7.63;1.70;;;8.70;99.90;;;;;;5065235;28;20033;-71
2022/11/19 08:57:37;;;;;;;7.50;1.50;;;8.70;99.90;;;;;;5065629;28;20037;-70
2022/11/19 09:00:03;;;;;;;9.93;1.85;;;8.70;99.90;;;;;;5065906;28;20040;-70
2022/11/19 09:02:29;;;;;;;10.85;1.80;;;8.80;99.90;;;;;;5050781;28;20844;-72
2022/11/19 09:04:54;;;;;;;12.27;2.08;;;8.80;99.90;;;;;;5043921;28;20037;-71
2022/11/19 09:07:20;;;;;;;7.65;1.63;;;8.80;99.90;;;;;;5067049;28;20059;-71
2022/11/19 09:09:46;;;;;;;8.93;1.80;;;8.90;99.90;;;;;;5065026;28;20079;-71
2022/11/19 09:12:11;;;;;;;9.52;1.70;;;8.90;99.90;;;;;;5058297;28;20032;-71
2022/11/19 09:14:37;;;;;;;9.52;1.50;;;8.90;99.90;;;;;;5045680;28;20119;-71
2022/11/19 09:17:02;;;;;;;6.28;1.40;;;9.00;99.90;;;;;;5046704;28;20036;-70
2022/11/19 09:19:28;;;;;;;8.18;1.67;;;9.00;99.90;;;;;;5066031;28;20436;-72
2022/11/19 09:21:54;;;;;;;10.05;2.05;;;9.10;99.90;;;;;;5064803;28;20039;-71
2022/11/19 09:24:19;;;;;;;9.45;1.65;;;9.10;99.90;;;;;;5065067;28;20484;-71
2022/11/19 09:26:45;;;;;;;7.18;1.67;;;9.20;99.90;;;;;;5064885;28;20032;-72
2022/11/19 09:29:10;;;;;;;9.30;1.63;;;9.20;99.90;;;;;;5046305;28;20803;-71
2022/11/19 09:31:36;;;;;;;9.32;1.58;;;9.20;99.90;;;;;;5056666;28;20036;-72
2022/11/19 09:34:02;;;;;;;8.10;1.70;;;9.30;99.90;;;;;;5064757;28;20641;-71
2022/11/19 09:36:28;;;;;;;7.13;1.45;;;9.30;99.90;;;;;;5046378;28;20036;-71
2022/11/19 09:38:57;;;;;;;8.13;1.80;;;9.30;99.90;;;;;;5063475;28;20500;-72
2022/11/19 09:41:44;;;;;;;7.97;1.65;;;9.40;99.90;;;;;;5045607;28;20043;-71
2022/11/19 09:44:21;;;;;;;9.63;1.90;;;9.40;99.90;;;;;;5064168;28;21091;-71
2022/11/19 09:47:02;;;;;;;7.13;1.50;;;9.40;99.90;;;;;;5061170;28;20077;-71
2022/11/19 09:49:33;;;;;;;6.28;1.70;;;9.50;99.90;;;;;;5050805;28;20036;-71
2022/11/19 09:52:20;;;;;;;9.60;1.67;;;9.50;99.90;;;;;;5063245;28;20059;-71
2022/11/19 09:54:49;;;;;;;8.80;1.67;;;9.60;99.90;;;;;;5043078;28;20041;-71
2022/11/19 09:57:28;;;;;;;8.83;1.50;;;9.60;99.90;;;;;;5045186;28;20479;-71
2022/11/19 09:59:57;;;;;;;9.20;1.85;;;9.60;99.90;;;;;;5062236;28;20062;-72
2022/11/19 10:02:23;;;;;;;9.15;1.50;;;9.60;99.90;;;;;;5064820;28;20628;-71
2022/11/19 10:04:50;;;;;;;10.10;1.92;;;9.60;99.90;;;;;;5064764;28;20039;-72
2022/11/19 10:07:38;;;;;;;8.50;1.60;;;9.60;99.90;;;;;;5064600;28;20024;-72
2022/11/19 10:10:25;;;;;;;9.10;1.77;;;9.70;99.90;;;;;;5066925;28;20032;-72
2022/11/19 10:13:13;;;;;;;7.45;1.30;;;9.70;99.90;;;;;;5062175;28;20075;-72
2022/11/19 10:15:51;;;;;;;9.38;1.98;;;9.70;99.90;;;;;;5048180;28;20044;-72
2022/11/19 10:18:48;;;;;;;12.68;1.40;;;9.80;99.90;;;;;;5058430;28;20032;-72
2022/11/19 10:21:25;;;;;;;9.13;1.83;;;9.80;99.90;;;;;;5061348;28;20032;-72
2022/11/19 10:24:01;;;;;;;5.97;1.42;;;9.80;99.90;;;;;;5038054;28;20498;-71
2022/11/19 10:26:34;;;;;;;7.72;1.40;;;9.90;99.90;;;;;;5062990;28;20147;-71
2022/11/19 10:29:02;;;;;;;7.38;1.77;;;10.00;99.90;;;;;;5063824;28;20033;-71
2022/11/19 10:31:37;;;;;;;9.73;1.92;;;10.00;99.90;;;;;;5062911;28;20032;-71
2022/11/19 10:34:18;;;;;;;9.30;1.55;;;10.10;99.90;;;;;;5063937;28;20025;-72
2022/11/19 10:36:51;;;;;;;7.50;1.88;;;10.10;99.90;;;;;;5063173;28;20024;-71
2022/11/19 10:39:56;;;;;;;7.25;1.42;;;10.20;99.90;;;;;;5041144;28;20037;-71
2022/11/19 10:42:38;;;;;;;6.40;1.35;;;10.20;99.90;;;;;;4979136;28;20031;-72
2022/11/19 10:45:05;;;;;;;9.65;1.73;;;10.10;99.90;;;;;;5039830;28;20114;-72
2022/11/19 10:47:55;;;;;;;9.00;1.77;;;10.10;99.90;;;;;;5062979;28;20055;-72
2022/11/19 10:50:23;;;;;;;8.40;1.52;;;10.40;99.90;;;;;;5061993;28;20116;-72
2022/11/19 10:53:01;;;;;;;8.02;1.40;;;10.90;99.90;;;;;;5042851;28;20575;-72
2022/11/19 10:55:37;;;;;;;8.90;1.92;;;11.70;99.90;;;;;;5059591;28;20029;-72
2022/11/19 10:58:23;;;;;;;10.38;1.83;;;11.80;99.90;;;;;;5032857;28;21489;-72
2022/11/19 11:00:53;;;;;;;6.80;1.60;;;11.70;99.90;;;;;;5060216;28;20031;-72
2022/11/19 11:03:33;;;;;;;7.20;1.60;;;11.50;99.90;;;;;;5062408;28;20035;-72
2022/11/19 11:06:02;;;;;;;;;;;11.40;99.90;;;;;;5059100;28;20055;-72
2022/11/19 11:08:28;;;;;;;12.60;2.00;;;11.60;99.90;;;;;;5045200;28;19913;-71
2022/11/19 11:10:54;;;;;;;8.02;1.52;;;11.80;99.90;;;;;;5050736;28;20117;-70
2022/11/19 11:16:45;;;;;;;8.93;1.75;;;12.10;99.90;;;;;;5062159;28;20110;-71
2022/11/19 11:19:15;;;;;;;7.18;1.25;;;11.90;99.90;;;;;;5064961;28;20178;-72
2022/11/19 11:21:42;;;;;;;6.78;1.65;;;11.70;99.90;;;;;;5040308;28;20121;-70
2022/11/19 11:24:12;;;;;;;5.88;1.60;;;11.80;99.90;;;;;;5046394;28;20039;-72
2022/11/19 11:26:39;;;;;;;7.95;2.08;;;11.90;99.90;;;;;;5068131;28;20029;-70
2022/11/19 11:29:04;;;;;;;6.93;1.80;;;12.00;99.90;;;;;;5062714;28;20032;-72
2022/11/19 11:31:31;;;;;;;6.75;1.63;;;12.00;99.90;;;;;;5047588;28;20020;-71
2022/11/19 11:33:57;;;;;;;6.85;1.50;;;11.90;99.90;;;;;;5063554;28;20024;-70
2022/11/19 11:36:26;;;;;;;5.65;1.63;;;11.90;99.90;;;;;;5066341;28;20028;-71
2022/11/19 11:38:55;;;;;;;6.97;2.10;;;11.90;99.90;;;;;;5059124;28;20127;-71
2022/11/19 11:41:42;;;;;;;9.77;1.73;;;11.90;99.90;;;;;;5065287;28;20040;-70
2022/11/19 11:44:13;;;;;;;9.75;2.15;;;11.90;99.90;;;;;;5065817;28;20473;-71
2022/11/19 11:46:46;;;;;;;7.72;1.60;;;11.90;99.90;;;;;;5067289;28;20107;-71
2022/11/19 11:49:39;;;;;;;8.25;1.52;;;11.90;99.90;;;;;;5068830;28;20051;-71
2022/11/19 11:52:12;;;;;;;6.63;2.03;;;11.90;99.90;;;;;;5068626;28;20036;-71
2022/11/19 11:54:56;;;;;;;7.38;1.65;;;11.90;99.90;;;;;;5068838;28;20051;-70
2022/11/19 11:57:25;;;;;;;6.10;1.33;;;11.90;99.90;;;;;;5067940;28;20135;-70
2022/11/19 11:59:51;;;;;;;7.90;1.40;;;11.90;99.90;;;;;;5055414;28;20386;-72
2022/11/19 12:02:29;;;;;;;6.70;1.23;;;12.10;99.90;;;;;;5067080;28;20655;-71
2022/11/19 12:04:58;;;;;;;5.18;1.20;;;12.30;99.90;;;;;;5066944;28;20067;-71
2022/11/19 12:07:32;;;;;;;4.57;1.20;;;12.60;99.90;;;;;;5067269;28;20029;-71
2022/11/19 12:10:02;;;;;;;6.93;1.70;;;12.80;99.90;;;;;;5042899;28;20029;-71
2022/11/19 12:12:51;;;;;;;7.63;1.33;;;12.90;99.90;;;;;;5066861;28;20426;-71
2022/11/19 12:15:30;;;;;;;4.93;1.00;;;12.80;99.90;;;;;;5050962;28;20036;-72
2022/11/19 12:18:11;;;;;;;7.05;1.27;;;12.70;99.90;;;;;;5078339;28;20036;-71
2022/11/19 12:20:59;;;;;;;6.68;1.40;;;12.60;99.90;;;;;;5060995;28;20082;-71
2022/11/19 12:23:44;;;;;;;7.45;1.27;;;12.50;99.90;;;;;;5051192;28;20040;-72
2022/11/19 12:26:13;;;;;;;5.85;1.10;;;12.40;99.90;;;;;;5066224;28;20028;-71
2022/11/19 12:29:00;;;;;;;6.25;1.20;;;12.40;99.90;;;;;;5066914;28;20032;-70
2022/11/19 12:31:32;;;;;;;4.88;1.10;;;12.30;99.90;;;;;;5065872;28;20040;-70
2022/11/19 12:34:29;;;;;;;4.82;1.30;;;12.30;99.90;;;;;;5065081;28;20028;-70
2022/11/19 12:37:32;;;;;;;4.35;1.08;;;12.20;99.90;;;;;;5064057;28;20036;-70
2022/11/19 12:40:17;;;;;;;6.25;1.52;;;12.20;99.90;;;;;;5055312;28;20033;-72
2022/11/19 12:42:59;;;;;;;8.27;1.65;;;12.20;99.90;;;;;;5038508;28;20063;-72
2022/11/19 12:45:45;;;;;;;4.18;1.20;;;12.20;99.90;;;;;;5059359;28;20028;-73
2022/11/19 12:48:19;;;;;;;5.40;1.33;;;12.20;99.90;;;;;;5045227;28;20021;-71
2022/11/19 12:51:04;;;;;;;2.03;1.00;;;12.20;99.90;;;;;;5064519;28;20029;-72
2022/11/19 12:54:00;;;;;;;4.88;1.25;;;12.30;99.90;;;;;;5058355;28;20047;-72
2022/11/19 12:56:40;;;;;;;5.75;1.33;;;12.30;99.90;;;;;;5055826;28;20078;-71
2022/11/19 12:59:33;;;;;;;3.10;1.05;;;12.20;99.90;;;;;;5058609;28;20039;-72
2022/11/19 13:02:02;;;;;;;5.57;1.00;;;12.10;99.90;;;;;;5062725;28;20827;-71
2022/11/19 13:04:39;;;;;;;4.85;1.23;;;11.90;99.90;;;;;;5044123;28;20029;-71
2022/11/19 13:07:14;;;;;;;4.60;1.02;;;11.80;99.90;;;;;;5059542;28;20060;-70
2022/11/19 13:09:47;;;;;;;3.67;1.13;;;11.80;99.90;;;;;;5046496;28;20029;-71
2022/11/19 13:12:30;;;;;;;6.40;1.63;;;11.70;99.90;;;;;;5044980;28;20044;-71
2022/11/19 13:15:02;;;;;;;4.68;1.42;;;11.60;99.90;;;;;;5045391;28;20040;-71
2022/11/19 13:17:36;;;;;;;5.43;1.48;;;11.60;99.90;;;;;;5029537;28;20060;-71
2022/11/19 13:20:23;;;;;;;5.15;1.33;;;11.50;99.90;;;;;;5045865;28;20087;-72
2022/11/19 13:22:53;;;;;;;5.55;1.30;;;11.40;99.90;;;;;;5049666;28;20046;-71
2022/11/19 13:25:26;;;;;;;4.55;1.15;;;11.40;99.90;;;;;;5066766;28;20029;-71
2022/11/19 13:27:54;;;;;;;4.78;1.10;;;11.30;99.90;;;;;;5067488;28;20069;-71
2022/11/19 13:30:22;;;;;;;4.20;1.20;;;11.30;99.90;;;;;;5066892;28;20669;-72
2022/11/19 13:33:12;;;;;;;4.57;1.10;;;11.30;99.90;;;;;;5067489;28;20024;-72